Terminal Aerodrome Forecast
Issued by NWS

Home | Current Version | Previous Version | Text Only | Print | Product List | Glossary On
Versions: 1 2 3 4 5 6 7 8 9 10 11 12 13 14
000
FTUS45 KABQ 280541
TAFFMN
TAF
KFMN 280541Z 2806/2906 34007KT P6SM BKN250
     FM280900 07005KT P6SM SCT250
     FM282000 26010KT P6SM FEW100
     FM290100 30010KT P6SM FEW100
     FM290400 08006KT P6SM FEW120=

USA.gov is the U.S. government's official web portal to all federal, state and local government web resources and services.